createdAt,value
2023-02-05T00:00:01.304Z,100.00
2023-02-05T00:02:27.929Z,100.00
2023-02-05T00:04:54.437Z,100.00
2023-02-05T00:07:20.931Z,100.00
2023-02-05T00:09:47.420Z,100.00
2023-02-05T00:12:14.008Z,100.00
2023-02-05T00:14:40.481Z,100.00
2023-02-05T00:17:07.013Z,100.00
2023-02-05T00:19:33.631Z,100.00
2023-02-05T00:22:00.128Z,100.00
2023-02-05T00:24:26.605Z,100.00
2023-02-05T00:26:53.093Z,100.00
2023-02-05T00:29:19.641Z,100.00
2023-02-05T00:31:49.502Z,100.00
2023-02-05T00:34:16.635Z,100.00
2023-02-05T00:36:43.178Z,100.00
2023-02-05T00:39:11.376Z,100.00
2023-02-05T00:41:38.523Z,100.00
2023-02-05T00:44:05.272Z,100.00
2023-02-05T00:46:31.835Z,100.00
2023-02-05T00:48:58.410Z,100.00
2023-02-05T00:51:25.027Z,100.00
2023-02-05T00:53:51.675Z,100.00
2023-02-05T00:56:18.138Z,100.00
2023-02-05T00:58:50.031Z,100.00
2023-02-05T01:01:16.849Z,100.00
2023-02-05T01:03:43.699Z,100.00
2023-02-05T01:06:10.232Z,100.00
2023-02-05T01:08:36.739Z,100.00
2023-02-05T01:11:08.043Z,100.00
2023-02-05T01:13:34.538Z,100.00
2023-02-05T01:16:01.119Z,100.00
2023-02-05T01:18:27.706Z,100.00
2023-02-05T01:20:54.247Z,100.00
2023-02-05T01:23:20.813Z,100.00
2023-02-05T01:25:47.742Z,100.00
2023-02-05T01:28:14.377Z,100.00
2023-02-05T01:30:40.971Z,100.00
2023-02-05T01:33:07.580Z,100.00
2023-02-05T01:35:34.381Z,100.00
2023-02-05T01:38:01.125Z,100.00
2023-02-05T01:40:27.678Z,100.00
2023-02-05T01:42:55.369Z,100.00
2023-02-05T01:45:21.789Z,100.00
2023-02-05T01:47:53.527Z,100.00
2023-02-05T01:50:51.164Z,100.00
2023-02-05T01:53:31.681Z,100.00
2023-02-05T01:56:01.426Z,100.00
2023-02-05T01:58:32.572Z,100.00
2023-02-05T02:00:59.741Z,100.00
2023-02-05T02:03:30.767Z,100.00
2023-02-05T02:05:57.625Z,100.00
2023-02-05T02:08:24.625Z,100.00
2023-02-05T02:10:53.522Z,100.00
2023-02-05T02:13:22.092Z,100.00
2023-02-05T02:15:50.257Z,100.00
2023-02-05T02:18:28.609Z,100.00
2023-02-05T02:21:23.211Z,100.00
2023-02-05T02:24:01.865Z,100.00
2023-02-05T02:26:52.992Z,100.00
2023-02-05T02:29:44.872Z,100.00
2023-02-05T02:32:51.833Z,100.00
2023-02-05T02:35:25.302Z,100.00
2023-02-05T02:37:51.625Z,100.00
2023-02-05T02:40:43.878Z,100.00
2023-02-05T02:43:19.530Z,100.00
2023-02-05T02:45:52.341Z,100.00
2023-02-05T02:48:22.395Z,100.00
2023-02-05T02:50:52.138Z,100.00
2023-02-05T02:53:23.998Z,100.00
2023-02-05T02:55:52.134Z,100.00
2023-02-05T02:58:32.744Z,100.00
2023-02-05T03:01:03.634Z,100.00
2023-02-05T03:03:32.587Z,100.00
2023-02-05T03:06:01.552Z,100.00
2023-02-05T03:08:34.945Z,100.00
2023-02-05T03:11:02.638Z,100.00
2023-02-05T03:13:30.290Z,100.00
2023-02-05T03:15:56.873Z,100.00
2023-02-05T03:18:24.725Z,100.00
2023-02-05T03:20:56.478Z,100.00
2023-02-05T03:23:24.162Z,100.00
2023-02-05T03:25:50.697Z,100.00
2023-02-05T03:28:17.385Z,100.00
2023-02-05T03:30:59.422Z,100.00
2023-02-05T03:33:34.758Z,100.00
2023-02-05T03:36:13.710Z,100.00
2023-02-05T03:38:51.103Z,100.00
2023-02-05T03:41:54.572Z,100.00
2023-02-05T03:44:48.683Z,100.00
2023-02-05T03:47:21.075Z,100.00
2023-02-05T03:49:53.585Z,100.00
2023-02-05T03:52:32.545Z,100.00
2023-02-05T03:55:28.298Z,100.00
2023-02-05T03:58:06.507Z,100.00
2023-02-05T04:00:34.520Z,100.00
2023-02-05T04:03:01.279Z,100.00
2023-02-05T04:05:27.805Z,100.00
2023-02-05T04:07:54.479Z,100.00
2023-02-05T04:10:20.942Z,100.00
2023-02-05T04:12:47.442Z,100.00
2023-02-05T04:15:14.083Z,100.00
2023-02-05T04:17:40.605Z,100.00
2023-02-05T04:20:08.571Z,100.00
2023-02-05T04:22:35.094Z,100.00
2023-02-05T04:25:01.710Z,100.00
2023-02-05T04:27:28.284Z,100.00
2023-02-05T04:29:54.786Z,100.00
2023-02-05T04:32:21.245Z,100.00
2023-02-05T04:34:47.789Z,100.00
2023-02-05T04:37:14.314Z,100.00
2023-02-05T04:39:40.819Z,100.00
2023-02-05T04:42:07.351Z,100.00
2023-02-05T04:44:33.802Z,100.00
2023-02-05T04:47:00.301Z,100.00
2023-02-05T04:49:26.844Z,100.00
2023-02-05T04:51:53.388Z,100.00
2023-02-05T04:54:19.909Z,100.00
2023-02-05T04:56:46.966Z,99.73
2023-02-05T04:59:13.617Z,100.00
2023-02-05T05:01:40.888Z,100.00
2023-02-05T05:04:07.563Z,100.00
2023-02-05T05:06:34.108Z,100.00
2023-02-05T05:09:00.616Z,100.00
2023-02-05T05:11:27.112Z,100.00
2023-02-05T05:13:53.667Z,100.00
2023-02-05T05:16:20.273Z,100.00
2023-02-05T05:18:46.933Z,100.00
2023-02-05T05:21:13.457Z,100.00
2023-02-05T05:23:39.971Z,100.00
2023-02-05T05:26:08.664Z,100.00
2023-02-05T05:28:36.014Z,100.00
2023-02-05T05:31:14.373Z,100.00
2023-02-05T05:33:40.865Z,100.00
2023-02-05T05:36:08.208Z,100.00
2023-02-05T05:38:35.268Z,100.00
2023-02-05T05:41:20.171Z,100.00
2023-02-05T05:43:47.470Z,100.00
2023-02-05T05:46:25.800Z,100.00
2023-02-05T05:48:55.077Z,100.00
2023-02-05T05:51:22.599Z,100.00
2023-02-05T05:53:49.626Z,100.00
2023-02-05T05:56:17.520Z,100.00
2023-02-05T05:58:44.823Z,100.00
2023-02-05T06:01:13.379Z,100.00
2023-02-05T06:03:39.881Z,100.00
2023-02-05T06:06:08.343Z,100.00
2023-02-05T06:08:35.223Z,100.00
2023-02-05T06:11:02.018Z,100.00
2023-02-05T06:13:28.691Z,100.00
2023-02-05T06:15:55.354Z,100.00
2023-02-05T06:18:23.698Z,99.31
2023-02-05T06:20:50.531Z,99.23
2023-02-05T06:23:17.220Z,99.74
2023-02-05T06:25:43.736Z,99.82
2023-02-05T06:28:10.264Z,99.22
2023-02-05T06:30:36.966Z,100.00
2023-02-05T06:33:03.620Z,99.55
2023-02-05T06:35:30.101Z,99.85
2023-02-05T06:37:56.633Z,98.65
2023-02-05T06:40:25.818Z,98.99
2023-02-05T06:42:53.170Z,98.55
2023-02-05T06:45:19.783Z,99.01
2023-02-05T06:47:46.355Z,98.94
2023-02-05T06:50:13.467Z,98.90
2023-02-05T06:52:39.973Z,98.15
2023-02-05T06:55:06.889Z,99.15
2023-02-05T06:57:33.826Z,98.90
2023-02-05T07:00:00.633Z,98.87
2023-02-05T07:02:27.487Z,99.55
2023-02-05T07:04:53.960Z,99.25
2023-02-05T07:07:20.419Z,98.41
2023-02-05T07:09:46.858Z,98.59
2023-02-05T07:12:13.377Z,99.05
2023-02-05T07:14:40.629Z,98.30
2023-02-05T07:17:07.676Z,97.41
2023-02-05T07:19:35.328Z,97.53
2023-02-05T07:22:02.021Z,98.53
2023-02-05T07:24:28.525Z,99.23
2023-02-05T07:26:54.996Z,100.00
2023-02-05T07:29:21.533Z,100.00
2023-02-05T07:31:52.249Z,97.19
2023-02-05T07:34:19.246Z,96.78
2023-02-05T07:36:45.709Z,97.21
2023-02-05T07:39:12.233Z,96.93
2023-02-05T07:41:38.844Z,97.08
2023-02-05T07:44:05.416Z,98.19
2023-02-05T07:46:32.100Z,96.82
2023-02-05T07:48:58.659Z,96.17
2023-02-05T07:51:26.382Z,94.71
2023-02-05T07:53:53.317Z,94.36
2023-02-05T07:56:23.158Z,97.55
2023-02-05T07:58:49.680Z,94.64
2023-02-05T08:01:16.428Z,95.17
2023-02-05T08:03:43.262Z,93.96
2023-02-05T08:06:14.019Z,93.25
2023-02-05T08:08:40.628Z,93.54
2023-02-05T08:11:07.405Z,94.27
2023-02-05T08:13:34.878Z,94.98
2023-02-05T08:16:05.805Z,95.42
2023-02-05T08:18:32.377Z,94.45
2023-02-05T08:20:58.934Z,95.03
2023-02-05T08:23:25.909Z,95.04
2023-02-05T08:25:56.748Z,94.72
2023-02-05T08:28:24.775Z,95.77
2023-02-05T08:30:51.695Z,95.65
2023-02-05T08:33:18.467Z,96.38
2023-02-05T08:35:44.991Z,94.00
2023-02-05T08:38:11.532Z,93.21
2023-02-05T08:40:38.138Z,93.54
2023-02-05T08:43:04.855Z,94.20
2023-02-05T08:45:31.528Z,93.48
2023-02-05T08:47:58.270Z,93.01
2023-02-05T08:50:26.023Z,93.70
2023-02-05T08:52:52.657Z,93.93
2023-02-05T08:55:19.371Z,94.78
2023-02-05T08:57:46.304Z,92.25
2023-02-05T09:00:15.128Z,93.19
2023-02-05T09:02:43.336Z,93.81
2023-02-05T09:05:10.398Z,94.35
2023-02-05T09:07:41.169Z,92.66
2023-02-05T09:10:09.912Z,92.95
2023-02-05T09:12:36.665Z,92.85
2023-02-05T09:15:03.491Z,91.23
2023-02-05T09:17:29.932Z,91.30
2023-02-05T09:19:56.551Z,90.56
2023-02-05T09:22:23.014Z,90.82
2023-02-05T09:24:49.600Z,90.44
2023-02-05T09:27:16.173Z,90.80
2023-02-05T09:29:42.688Z,90.73
2023-02-05T09:32:09.192Z,91.15
2023-02-05T09:34:35.699Z,92.97
2023-02-05T09:37:02.235Z,92.46
2023-02-05T09:40:12.332Z,91.92
2023-02-05T09:42:23.383Z,91.59
2023-02-05T09:45:32.800Z,91.73
2023-02-05T09:48:22.594Z,92.21
2023-02-05T09:50:50.296Z,91.01
2023-02-05T09:53:19.383Z,91.00
2023-02-05T09:55:47.346Z,91.22
2023-02-05T09:58:31.035Z,90.85
2023-02-05T10:01:01.552Z,91.88
2023-02-05T10:03:32.380Z,92.20
2023-02-05T10:06:21.280Z,100.00
2023-02-05T10:09:32.456Z,91.31
2023-02-05T10:12:21.265Z,92.12
2023-02-05T10:15:06.121Z,92.50
2023-02-05T10:18:04.871Z,91.77
2023-02-05T10:20:45.189Z,91.95
2023-02-05T10:23:27.610Z,91.29
2023-02-05T10:26:01.453Z,91.34
2023-02-05T10:28:37.123Z,90.37
2023-02-05T10:31:25.341Z,90.93
2023-02-05T10:33:57.303Z,91.16
2023-02-05T10:36:29.046Z,90.38
2023-02-05T10:38:56.860Z,91.35
2023-02-05T10:42:01.655Z,91.05
2023-02-05T10:44:36.545Z,91.71
2023-02-05T10:47:12.438Z,91.29
2023-02-05T10:49:58.103Z,91.25
2023-02-05T10:52:24.729Z,92.07
2023-02-05T10:54:51.842Z,91.44
2023-02-05T10:57:20.595Z,92.08
2023-02-05T10:59:56.936Z,94.18
2023-02-05T11:02:32.754Z,94.71
2023-02-05T11:05:06.362Z,94.93
2023-02-05T11:07:39.268Z,95.02
2023-02-05T11:10:23.118Z,94.80
2023-02-05T11:12:57.081Z,95.59
2023-02-05T11:15:29.281Z,95.93
2023-02-05T11:18:00.696Z,97.34
2023-02-05T11:20:30.996Z,98.03
2023-02-05T11:23:06.262Z,98.95
2023-02-05T11:25:32.777Z,98.06
2023-02-05T11:28:01.929Z,97.74
2023-02-05T11:30:56.040Z,99.12
2023-02-05T11:33:24.775Z,100.00
2023-02-05T11:35:58.191Z,100.00
2023-02-05T11:38:29.961Z,99.39
2023-02-05T11:41:00.102Z,99.20
2023-02-05T11:43:31.388Z,98.17
2023-02-05T11:45:59.973Z,97.16
2023-02-05T11:48:39.103Z,98.26
2023-02-05T11:51:09.362Z,98.55
2023-02-05T11:53:38.581Z,98.64
2023-02-05T11:56:11.715Z,99.82
2023-02-05T11:58:38.734Z,99.98
2023-02-05T12:01:21.455Z,99.17
2023-02-05T12:04:01.377Z,98.31
2023-02-05T12:06:37.468Z,98.95
2023-02-05T12:09:04.574Z,99.13
2023-02-05T12:12:04.361Z,99.38
2023-02-05T12:14:44.639Z,99.90
2023-02-05T12:17:19.932Z,98.90
2023-02-05T12:19:58.069Z,99.46
2023-02-05T12:22:36.482Z,100.00
2023-02-05T12:25:36.764Z,100.00
2023-02-05T12:28:42.282Z,100.00
2023-02-05T12:31:22.285Z,100.00
2023-02-05T12:34:24.663Z,100.00
2023-02-05T12:37:01.214Z,100.00
2023-02-05T12:39:34.523Z,100.00
2023-02-05T12:42:20.008Z,100.00
2023-02-05T12:44:55.346Z,100.00
2023-02-05T12:47:37.072Z,100.00
2023-02-05T12:50:22.524Z,100.00
2023-02-05T12:53:18.286Z,100.00
2023-02-05T12:56:22.102Z,100.00
2023-02-05T12:59:01.057Z,100.00
2023-02-05T13:01:42.852Z,100.00
2023-02-05T13:04:33.797Z,100.00
2023-02-05T13:07:19.024Z,100.00
2023-02-05T13:09:51.041Z,100.00
2023-02-05T13:12:23.272Z,100.00
2023-02-05T13:15:12.121Z,100.00
2023-02-05T13:17:45.524Z,100.00
2023-02-05T13:20:44.268Z,100.00
2023-02-05T13:23:29.390Z,100.00
2023-02-05T13:26:08.927Z,100.00
2023-02-05T13:28:49.748Z,100.00
2023-02-05T13:31:21.550Z,100.00
2023-02-05T13:33:49.135Z,100.00
2023-02-05T13:36:24.347Z,100.00
2023-02-05T13:38:54.079Z,100.00
2023-02-05T13:42:14.205Z,100.00
2023-02-05T13:45:05.737Z,100.00
2023-02-05T13:48:06.062Z,100.00
2023-02-05T13:50:54.439Z,100.00
2023-02-05T13:53:32.449Z,99.66
2023-02-05T13:56:20.215Z,98.32
2023-02-05T13:58:56.450Z,99.25
2023-02-05T14:01:34.596Z,100.00
2023-02-05T14:04:21.802Z,100.00
2023-02-05T14:07:04.304Z,100.00
2023-02-05T14:09:38.811Z,100.00
2023-02-05T14:12:10.406Z,100.00
2023-02-05T14:14:39.369Z,100.00
2023-02-05T14:17:38.263Z,100.00
2023-02-05T14:20:24.752Z,98.63
2023-02-05T14:23:00.903Z,98.29
2023-02-05T14:25:38.027Z,99.69
2023-02-05T14:28:17.007Z,100.00
2023-02-05T14:30:51.921Z,100.00
2023-02-05T14:33:37.261Z,100.00
2023-02-05T14:36:16.927Z,100.00
2023-02-05T14:38:46.095Z,99.20
2023-02-05T14:41:20.096Z,99.90
2023-02-05T14:44:01.902Z,100.00
2023-02-05T14:46:37.444Z,100.00
2023-02-05T14:49:07.613Z,100.00
2023-02-05T14:51:42.130Z,100.00
2023-02-05T14:54:19.003Z,100.00
2023-02-05T14:56:48.798Z,100.00
2023-02-05T14:59:41.489Z,100.00
2023-02-05T15:02:45.620Z,100.00
2023-02-05T15:05:39.177Z,100.00
2023-02-05T15:08:08.740Z,100.00
2023-02-05T15:10:45.351Z,100.00
2023-02-05T15:13:19.545Z,100.00
2023-02-05T15:16:07.795Z,100.00
2023-02-05T15:18:39.645Z,100.00
2023-02-05T15:21:07.794Z,100.00
2023-02-05T15:23:42.401Z,100.00
2023-02-05T15:26:21.124Z,100.00
2023-02-05T15:29:01.543Z,100.00
2023-02-05T15:31:33.939Z,100.00
2023-02-05T15:34:28.009Z,100.00
2023-02-05T15:37:00.811Z,100.00
2023-02-05T15:39:44.967Z,100.00
2023-02-05T15:42:18.190Z,100.00
2023-02-05T15:44:44.649Z,100.00
2023-02-05T15:47:18.676Z,100.00
2023-02-05T15:49:48.571Z,100.00
2023-02-05T15:52:21.986Z,100.00
2023-02-05T15:54:50.583Z,100.00
2023-02-05T15:57:27.529Z,100.00
2023-02-05T15:59:55.625Z,100.00
2023-02-05T16:02:27.404Z,100.00
2023-02-05T16:05:09.737Z,100.00
2023-02-05T16:07:41.404Z,100.00
2023-02-05T16:10:25.622Z,100.00
2023-02-05T16:13:15.617Z,100.00
2023-02-05T16:15:52.294Z,100.00
2023-02-05T16:18:40.518Z,100.00
2023-02-05T16:21:18.648Z,100.00
2023-02-05T16:23:57.377Z,100.00
2023-02-05T16:26:31.101Z,100.00
2023-02-05T16:29:02.439Z,100.00
2023-02-05T16:31:30.412Z,100.00
2023-02-05T16:34:04.590Z,100.00
2023-02-05T16:36:38.228Z,100.00
2023-02-05T16:39:14.362Z,100.00
2023-02-05T16:41:42.800Z,100.00
2023-02-05T16:44:27.389Z,100.00
2023-02-05T16:47:13.385Z,100.00
2023-02-05T16:49:40.996Z,100.00
2023-02-05T16:52:42.866Z,100.00
2023-02-05T16:55:14.914Z,100.00
2023-02-05T16:57:41.634Z,100.00
2023-02-05T17:00:34.662Z,100.00
2023-02-05T17:03:16.218Z,100.00
2023-02-05T17:05:42.811Z,100.00
2023-02-05T17:08:12.318Z,100.00
2023-02-05T17:10:59.261Z,100.00
2023-02-05T17:13:40.461Z,100.00
2023-02-05T17:16:30.372Z,100.00
2023-02-05T17:19:22.932Z,100.00
2023-02-05T17:22:15.089Z,100.00
2023-02-05T17:24:47.202Z,100.00
2023-02-05T17:27:24.819Z,100.00
2023-02-05T17:29:51.359Z,100.00
2023-02-05T17:32:19.702Z,100.00
2023-02-05T17:34:47.925Z,100.00
2023-02-05T17:37:14.908Z,100.00
2023-02-05T17:39:41.890Z,100.00
2023-02-05T17:42:21.038Z,100.00
2023-02-05T17:44:47.834Z,100.00
2023-02-05T17:47:14.669Z,100.00
2023-02-05T17:49:42.075Z,100.00
2023-02-05T17:52:09.640Z,99.24
2023-02-05T17:54:36.277Z,98.93
2023-02-05T17:57:22.698Z,100.00
2023-02-05T17:59:49.803Z,100.00
2023-02-05T18:02:16.553Z,100.00
2023-02-05T18:04:44.868Z,100.00
2023-02-05T18:07:23.096Z,100.00
2023-02-05T18:09:49.696Z,100.00
2023-02-05T18:12:16.287Z,100.00
2023-02-05T18:14:42.766Z,100.00
2023-02-05T18:17:09.325Z,100.00
2023-02-05T18:19:35.887Z,100.00
2023-02-05T18:22:02.412Z,100.00
2023-02-05T18:24:29.603Z,100.00
2023-02-05T18:26:56.973Z,100.00
2023-02-05T18:29:23.660Z,100.00
2023-02-05T18:31:50.150Z,100.00
2023-02-05T18:34:16.612Z,100.00
2023-02-05T18:36:43.112Z,100.00
2023-02-05T18:39:10.412Z,100.00
2023-02-05T18:41:38.202Z,100.00
2023-02-05T18:44:05.232Z,100.00
2023-02-05T18:46:32.150Z,100.00
2023-02-05T18:48:58.702Z,100.00
2023-02-05T18:51:25.452Z,100.00
2023-02-05T18:53:52.437Z,100.00
2023-02-05T18:56:23.669Z,100.00
2023-02-05T18:59:01.697Z,100.00
2023-02-05T19:01:38.969Z,100.00
2023-02-05T19:04:18.458Z,100.00
2023-02-05T19:06:52.369Z,100.00
2023-02-05T19:09:24.192Z,100.00
2023-02-05T19:11:51.611Z,100.00
2023-02-05T19:14:20.085Z,100.00
2023-02-05T19:16:48.066Z,100.00
2023-02-05T19:19:17.654Z,100.00
2023-02-05T19:21:49.910Z,100.00
2023-02-05T19:24:18.595Z,100.00
2023-02-05T19:26:45.163Z,100.00
2023-02-05T19:29:15.191Z,100.00
2023-02-05T19:31:42.011Z,100.00
2023-02-05T19:34:08.776Z,100.00
2023-02-05T19:36:35.953Z,100.00
2023-02-05T19:39:04.990Z,100.00
2023-02-05T19:41:34.068Z,100.00
2023-02-05T19:44:04.010Z,100.00
2023-02-05T19:46:33.261Z,100.00
2023-02-05T19:49:02.231Z,100.00
2023-02-05T19:51:29.096Z,100.00
2023-02-05T19:54:00.218Z,100.00
2023-02-05T19:56:26.848Z,100.00
2023-02-05T19:58:55.437Z,100.00
2023-02-05T20:01:27.406Z,100.00
2023-02-05T20:03:57.575Z,100.00
2023-02-05T20:06:28.765Z,100.00
2023-02-05T20:08:56.198Z,100.00
2023-02-05T20:11:22.870Z,100.00
2023-02-05T20:13:49.549Z,100.00
2023-02-05T20:16:21.163Z,100.00
2023-02-05T20:18:56.282Z,100.00
2023-02-05T20:21:23.730Z,100.00
2023-02-05T20:23:50.840Z,100.00
2023-02-05T20:26:22.241Z,100.00
2023-02-05T20:29:14.904Z,100.00
2023-02-05T20:31:46.081Z,100.00
2023-02-05T20:34:21.903Z,100.00
2023-02-05T20:37:04.259Z,100.00
2023-02-05T20:39:33.355Z,100.00
2023-02-05T20:42:00.288Z,100.00
2023-02-05T20:44:29.663Z,100.00
2023-02-05T20:46:57.054Z,100.00
2023-02-05T20:49:24.409Z,100.00
2023-02-05T20:51:52.912Z,100.00
2023-02-05T20:54:19.747Z,100.00
2023-02-05T20:56:46.264Z,100.00
2023-02-05T20:59:12.789Z,100.00
2023-02-05T21:01:40.418Z,100.00
2023-02-05T21:04:09.996Z,100.00
2023-02-05T21:06:39.484Z,100.00
2023-02-05T21:09:07.777Z,100.00
2023-02-05T21:11:34.803Z,100.00
2023-02-05T21:14:03.459Z,100.00
2023-02-05T21:16:30.734Z,100.00
2023-02-05T21:18:57.275Z,100.00
2023-02-05T21:21:27.637Z,100.00
2023-02-05T21:23:59.033Z,100.00
2023-02-05T21:26:31.960Z,100.00
2023-02-05T21:29:01.323Z,100.00
2023-02-05T21:31:33.940Z,100.00
2023-02-05T21:34:05.252Z,100.00
2023-02-05T21:36:33.174Z,100.00
2023-02-05T21:39:00.314Z,100.00
2023-02-05T21:41:27.349Z,100.00
2023-02-05T21:43:59.501Z,100.00
2023-02-05T21:46:29.350Z,100.00
2023-02-05T21:48:57.671Z,100.00
2023-02-05T21:51:26.406Z,100.00
2023-02-05T21:53:58.898Z,100.00
2023-02-05T21:56:34.905Z,100.00
2023-02-05T21:59:01.574Z,100.00
2023-02-05T22:01:30.886Z,100.00
2023-02-05T22:04:00.136Z,100.00
2023-02-05T22:06:30.273Z,100.00
2023-02-05T22:08:58.158Z,100.00
2023-02-05T22:11:25.503Z,100.00
2023-02-05T22:13:53.670Z,100.00
2023-02-05T22:16:21.880Z,100.00
2023-02-05T22:18:48.679Z,100.00
2023-02-05T22:21:17.762Z,100.00
2023-02-05T22:23:49.057Z,100.00
2023-02-05T22:26:19.025Z,100.00
2023-02-05T22:28:46.177Z,100.00
2023-02-05T22:31:15.131Z,100.00
2023-02-05T22:33:44.227Z,100.00
2023-02-05T22:36:12.750Z,100.00
2023-02-05T22:38:40.850Z,100.00
2023-02-05T22:41:13.143Z,100.00
2023-02-05T22:43:40.329Z,100.00
2023-02-05T22:46:08.631Z,100.00
2023-02-05T22:48:36.877Z,100.00
2023-02-05T22:51:05.424Z,100.00
2023-02-05T22:53:32.240Z,100.00
2023-02-05T22:56:04.076Z,100.00
2023-02-05T22:58:31.285Z,100.00
2023-02-05T23:00:58.311Z,100.00
2023-02-05T23:03:25.503Z,100.00
2023-02-05T23:05:52.134Z,100.00
2023-02-05T23:08:18.658Z,100.00
2023-02-05T23:10:45.159Z,100.00
2023-02-05T23:13:11.867Z,100.00
2023-02-05T23:15:38.319Z,100.00
2023-02-05T23:18:04.861Z,100.00
2023-02-05T23:20:32.428Z,100.00
2023-02-05T23:22:58.871Z,100.00
2023-02-05T23:25:25.334Z,100.00
2023-02-05T23:27:51.860Z,100.00
2023-02-05T23:30:18.709Z,100.00
2023-02-05T23:32:45.202Z,100.00
2023-02-05T23:35:11.696Z,100.00
2023-02-05T23:37:38.161Z,100.00
2023-02-05T23:40:04.949Z,100.00
2023-02-05T23:42:31.424Z,100.00
2023-02-05T23:44:57.868Z,100.00
2023-02-05T23:47:24.369Z,100.00
2023-02-05T23:49:50.829Z,100.00
2023-02-05T23:52:17.406Z,100.00
2023-02-05T23:54:43.897Z,100.00
2023-02-05T23:57:10.368Z,100.00
2023-02-05T23:59:36.808Z,100.00
